createdAt,value
2023-10-10T00:02:05.351Z,101939.63
2023-10-10T00:04:34.587Z,101945.75
2023-10-10T00:07:05.420Z,101937.81
2023-10-10T00:09:32.831Z,101931.66
2023-10-10T00:12:00.016Z,101937.81
2023-10-10T00:14:30.687Z,101939.59
2023-10-10T00:17:00.953Z,101942.25
2023-10-10T00:19:31.368Z,101943.09
2023-10-10T00:21:58.965Z,101938.69
2023-10-10T00:24:32.702Z,101936.03
2023-10-10T00:27:16.859Z,101943.09
2023-10-10T00:29:44.287Z,101936.91
2023-10-10T00:32:18.881Z,101928.97
2023-10-10T00:34:49.858Z,101927.16
2023-10-10T00:37:22.557Z,101928.91
2023-10-10T00:39:55.723Z,101925.38
2023-10-10T00:42:41.695Z,101921.84
2023-10-10T00:45:11.461Z,101916.56
2023-10-10T00:47:51.835Z,101925.34
2023-10-10T00:50:20.262Z,101915.63
2023-10-10T00:52:50.292Z,101913.88
2023-10-10T00:55:26.169Z,101923.56
2023-10-10T00:58:00.035Z,101923.53
2023-10-10T01:00:31.427Z,101925.31
2023-10-10T01:03:22.488Z,101922.66
2023-10-10T01:05:59.566Z,101912.97
2023-10-10T01:08:32.572Z,101905.03
2023-10-10T01:11:06.684Z,101905.91
2023-10-10T01:13:35.152Z,101899.69
2023-10-10T01:16:06.287Z,101901.47
2023-10-10T01:18:41.063Z,101896.16
2023-10-10T01:21:10.305Z,101884.72
2023-10-10T01:23:38.889Z,101882.06
2023-10-10T01:26:11.024Z,101884.72
2023-10-10T01:28:38.354Z,101883.78
2023-10-10T01:31:06.639Z,101883.78
2023-10-10T01:33:37.922Z,101888.19
2023-10-10T01:36:13.875Z,101885.56
2023-10-10T01:38:57.191Z,101886.44
2023-10-10T01:41:41.163Z,101876.75
2023-10-10T01:44:12.635Z,101877.63
2023-10-10T01:46:44.351Z,101873.19
2023-10-10T01:49:20.914Z,101867.88
2023-10-10T01:51:56.697Z,101871.41
2023-10-10T01:54:42.861Z,101858.19
2023-10-10T01:57:22.191Z,101860.84
2023-10-10T01:59:52.878Z,101857.31
2023-10-10T02:02:24.835Z,101860.84
2023-10-10T02:05:00.961Z,101852.88
2023-10-10T02:07:33.242Z,101846.69
2023-10-10T02:10:21.808Z,101848.47
2023-10-10T02:12:53.018Z,101847.56
2023-10-10T02:15:26.705Z,101838.72
2023-10-10T02:17:56.235Z,101839.59
2023-10-10T02:20:26.713Z,101839.59
2023-10-10T02:23:13.080Z,101836.09
2023-10-10T02:25:41.189Z,101836.06
2023-10-10T02:28:21.247Z,101835.19
2023-10-10T02:30:53.592Z,101834.28
2023-10-10T02:33:21.339Z,101827.22
2023-10-10T02:35:57.736Z,101821.06
2023-10-10T02:38:41.230Z,101827.22
2023-10-10T02:41:31.234Z,101825.44
2023-10-10T02:44:01.913Z,101828.06
2023-10-10T02:46:36.740Z,101824.53
2023-10-10T02:49:14.041Z,101818.38
2023-10-10T02:51:44.556Z,101815.72
2023-10-10T02:54:32.180Z,101816.59
2023-10-10T02:57:26.184Z,101822.78
2023-10-10T03:00:01.448Z,101823.63
2023-10-10T03:02:42.426Z,101818.34
2023-10-10T03:05:17.053Z,101816.56
2023-10-10T03:07:53.131Z,101820.97
2023-10-10T03:10:24.125Z,101816.56
2023-10-10T03:13:05.288Z,101821.84
2023-10-10T03:15:34.633Z,101820.09
2023-10-10T03:18:11.307Z,101827.13
2023-10-10T03:20:38.423Z,101822.72
2023-10-10T03:23:06.718Z,101820.97
2023-10-10T03:25:53.972Z,101825.38
2023-10-10T03:28:28.910Z,101817.44
2023-10-10T03:31:08.143Z,101817.44
2023-10-10T03:33:38.726Z,101820.09
2023-10-10T03:36:16.095Z,101818.34
2023-10-10T03:38:49.171Z,101820.09
2023-10-10T03:41:24.118Z,101818.34
2023-10-10T03:44:14.652Z,101813.03
2023-10-10T03:47:00.775Z,101824.50
2023-10-10T03:49:50.712Z,101828.00
2023-10-10T03:52:36.559Z,101832.41
2023-10-10T03:55:22.362Z,101832.41
2023-10-10T03:58:07.906Z,101815.69
2023-10-10T04:01:13.443Z,101830.66
2023-10-10T04:03:59.383Z,101820.97
2023-10-10T04:06:45.063Z,101821.84
2023-10-10T04:09:30.853Z,101820.09
2023-10-10T04:12:16.829Z,101811.28
2023-10-10T04:15:02.601Z,101812.13
2023-10-10T04:17:48.844Z,101805.09
2023-10-10T04:20:35.003Z,101803.31
2023-10-10T04:23:20.987Z,101809.47
2023-10-10T04:26:06.861Z,101809.47
2023-10-10T04:28:52.563Z,101803.31
2023-10-10T04:31:38.729Z,101796.25
2023-10-10T04:34:24.568Z,101798.00
2023-10-10T04:37:10.251Z,101803.25
2023-10-10T04:39:56.263Z,101797.09
2023-10-10T04:42:42.006Z,101797.97
2023-10-10T04:45:27.932Z,101794.44
2023-10-10T04:48:13.692Z,101801.50
2023-10-10T04:50:59.674Z,101802.38
2023-10-10T04:53:45.493Z,101792.69
2023-10-10T04:56:42.180Z,101793.56
2023-10-10T04:59:27.655Z,101786.47
2023-10-10T05:02:13.837Z,101782.09
2023-10-10T05:04:59.757Z,101775.03
2023-10-10T05:07:45.844Z,101778.56
2023-10-10T05:10:31.411Z,101786.47
2023-10-10T05:13:17.348Z,101782.06
2023-10-10T05:16:03.272Z,101783.84
2023-10-10T05:18:50.791Z,101778.53
2023-10-10T05:21:36.714Z,101778.50
2023-10-10T05:24:10.308Z,101778.50
2023-10-10T05:26:47.521Z,101775.84
2023-10-10T05:29:20.615Z,101772.34
2023-10-10T05:31:48.785Z,101766.97
2023-10-10T05:34:16.474Z,101768.72
2023-10-10T05:36:46.078Z,101774.88
2023-10-10T05:39:19.069Z,101769.59
2023-10-10T05:41:48.501Z,101773.97
2023-10-10T05:44:17.982Z,101776.59
2023-10-10T05:46:45.543Z,101772.19
2023-10-10T05:49:12.766Z,101771.28
2023-10-10T05:51:40.016Z,101772.16
2023-10-10T05:54:12.550Z,101773.91
2023-10-10T05:56:40.036Z,101767.75
2023-10-10T05:59:09.488Z,101773.00
2023-10-10T06:01:38.737Z,101778.28
2023-10-10T06:04:08.519Z,101776.53
2023-10-10T06:06:37.643Z,101767.78
2023-10-10T06:09:06.523Z,101774.81
2023-10-10T06:11:35.896Z,101768.72
2023-10-10T06:14:05.445Z,101769.59
2023-10-10T06:16:33.693Z,101770.50
2023-10-10T06:19:02.533Z,101760.88
2023-10-10T06:21:30.934Z,101767.06
2023-10-10T06:23:58.415Z,101764.47
2023-10-10T06:26:26.060Z,101767.09
2023-10-10T06:28:55.140Z,101758.31
2023-10-10T06:31:23.257Z,101761.00
2023-10-10T06:33:51.733Z,101761.88
2023-10-10T06:36:23.323Z,101759.28
2023-10-10T06:39:19.208Z,101769.88
2023-10-10T06:41:51.297Z,101762.88
2023-10-10T06:44:33.474Z,101752.34
2023-10-10T06:47:05.632Z,101751.50
2023-10-10T06:49:44.801Z,101753.28
2023-10-10T06:52:19.727Z,101754.19
2023-10-10T06:54:55.206Z,101748.06
2023-10-10T06:57:50.591Z,101757.78
2023-10-10T07:00:18.356Z,101756.91
2023-10-10T07:02:50.033Z,101765.72
2023-10-10T07:05:20.431Z,101756.97
2023-10-10T07:07:59.572Z,101760.50
2023-10-10T07:10:35.062Z,101755.22
2023-10-10T07:13:11.808Z,101753.47
2023-10-10T07:15:41.387Z,101742.88
2023-10-10T07:18:11.331Z,101745.53
2023-10-10T07:20:57.176Z,101746.41
2023-10-10T07:23:25.424Z,101749.00
2023-10-10T07:26:02.336Z,101739.28
2023-10-10T07:28:29.757Z,101741.94
2023-10-10T07:30:57.088Z,101738.38
2023-10-10T07:33:25.488Z,101739.25
2023-10-10T07:35:56.778Z,101742.78
2023-10-10T07:38:30.384Z,101741.00
2023-10-10T07:40:57.607Z,101736.53
2023-10-10T07:43:28.428Z,101742.72
2023-10-10T07:45:59.686Z,101738.31
2023-10-10T07:48:29.887Z,101737.38
2023-10-10T07:51:07.212Z,101736.47
2023-10-10T07:53:44.443Z,101728.47
2023-10-10T07:56:12.113Z,101732.84
2023-10-10T07:58:53.258Z,101732.81
2023-10-10T08:01:22.039Z,101728.34
2023-10-10T08:03:49.598Z,101722.13
2023-10-10T08:06:23.019Z,101715.81
2023-10-10T08:09:11.075Z,101721.97
2023-10-10T08:11:39.356Z,101729.81
2023-10-10T08:14:10.149Z,101733.28
2023-10-10T08:16:44.277Z,101728.75
2023-10-10T08:19:16.402Z,101732.22
2023-10-10T08:21:52.973Z,101727.72
2023-10-10T08:24:21.519Z,101726.75
2023-10-10T08:26:52.589Z,101730.19
2023-10-10T08:29:24.154Z,101728.38
2023-10-10T08:31:53.093Z,101723.88
2023-10-10T08:34:20.486Z,101724.72
2023-10-10T08:36:49.972Z,101731.81
2023-10-10T08:39:17.284Z,101722.06
2023-10-10T08:41:46.157Z,101731.75
2023-10-10T08:44:19.958Z,101730.78
2023-10-10T08:46:48.473Z,101725.41
2023-10-10T08:49:16.837Z,101728.00
2023-10-10T08:51:46.185Z,101724.44
2023-10-10T08:54:17.444Z,101723.47
2023-10-10T08:57:04.043Z,101730.56
2023-10-10T08:59:34.502Z,101726.13
2023-10-10T09:02:07.852Z,101734.94
2023-10-10T09:04:36.007Z,101730.47
2023-10-10T09:07:09.823Z,101730.44
2023-10-10T09:09:55.470Z,101732.09
2023-10-10T09:12:22.885Z,101727.63
2023-10-10T09:14:53.265Z,101728.41
2023-10-10T09:17:34.607Z,101726.50
2023-10-10T09:20:24.275Z,101721.16
2023-10-10T09:23:05.903Z,101718.41
2023-10-10T09:25:43.000Z,101715.63
2023-10-10T09:28:16.542Z,101717.38
2023-10-10T09:30:51.773Z,101711.06
2023-10-10T09:33:31.191Z,101710.94
2023-10-10T09:36:10.235Z,101708.19
2023-10-10T09:38:46.679Z,101714.34
2023-10-10T09:41:27.945Z,101710.66
2023-10-10T09:44:22.786Z,101721.97
2023-10-10T09:47:04.961Z,101716.47
2023-10-10T09:49:53.366Z,101726.09
2023-10-10T09:52:44.283Z,101722.38
2023-10-10T09:55:14.471Z,101722.25
2023-10-10T09:58:17.261Z,101721.22
2023-10-10T10:00:44.972Z,101717.53
2023-10-10T10:03:46.147Z,101712.06
2023-10-10T10:07:07.518Z,101722.53
2023-10-10T10:10:13.931Z,101720.56
2023-10-10T10:13:38.411Z,101715.06
2023-10-10T10:16:26.809Z,101724.59
2023-10-10T10:19:12.985Z,101714.59
2023-10-10T10:22:09.469Z,101717.03
2023-10-10T10:24:46.441Z,101708.88
2023-10-10T10:27:36.232Z,101706.06
2023-10-10T10:30:20.928Z,101706.81
2023-10-10T10:32:56.285Z,101701.38
2023-10-10T10:35:50.008Z,101697.69
2023-10-10T10:38:24.241Z,101698.47
2023-10-10T10:41:06.036Z,101698.34
2023-10-10T10:43:40.105Z,101697.38
2023-10-10T10:46:15.904Z,101698.25
2023-10-10T10:48:49.515Z,101701.66
2023-10-10T10:51:29.197Z,101700.66
2023-10-10T10:54:00.743Z,101692.72
2023-10-10T10:56:36.283Z,101703.31
2023-10-10T10:59:20.967Z,101700.44
2023-10-10T11:01:53.747Z,101696.75
2023-10-10T11:04:46.720Z,101698.38
2023-10-10T11:07:27.354Z,101694.63
2023-10-10T11:10:11.249Z,101697.16
2023-10-10T11:12:38.574Z,101683.59
2023-10-10T11:15:09.480Z,101683.44
2023-10-10T11:17:41.342Z,101669.03
2023-10-10T11:20:30.620Z,101677.75
2023-10-10T11:23:13.253Z,101668.69
2023-10-10T11:26:00.047Z,101672.97
2023-10-10T11:28:38.848Z,101662.13
2023-10-10T11:31:08.626Z,101656.59
2023-10-10T11:33:50.205Z,101655.56
2023-10-10T11:36:31.269Z,101663.47
2023-10-10T11:39:18.141Z,101654.41
2023-10-10T11:41:46.685Z,101654.25
2023-10-10T11:44:20.361Z,101650.53
2023-10-10T11:46:48.423Z,101643.31
2023-10-10T11:49:18.814Z,101645.88
2023-10-10T11:51:47.987Z,101650.19
2023-10-10T11:54:15.494Z,101645.59
2023-10-10T11:56:47.513Z,101645.50
2023-10-10T11:59:15.636Z,101640.00
2023-10-10T12:02:07.177Z,101633.56
2023-10-10T12:04:37.905Z,101628.97
2023-10-10T12:07:07.384Z,101628.78
2023-10-10T12:09:35.529Z,101634.84
2023-10-10T12:12:04.738Z,101635.69
2023-10-10T12:14:33.313Z,101631.03
2023-10-10T12:17:06.510Z,101633.59
2023-10-10T12:19:38.380Z,101624.53
2023-10-10T12:22:12.230Z,101618.19
2023-10-10T12:24:42.940Z,101618.06
2023-10-10T12:27:10.958Z,101614.34
2023-10-10T12:29:41.759Z,101613.31
2023-10-10T12:32:30.674Z,101609.59
2023-10-10T12:35:00.959Z,101608.66
2023-10-10T12:37:28.241Z,101604.09
2023-10-10T12:39:55.621Z,101604.00
2023-10-10T12:42:22.853Z,101602.09
2023-10-10T12:44:50.298Z,101604.59
2023-10-10T12:47:19.149Z,101610.75
2023-10-10T12:49:46.941Z,101605.28
2023-10-10T12:52:14.422Z,101603.31
2023-10-10T12:54:43.360Z,101600.50
2023-10-10T12:57:15.541Z,101605.75
2023-10-10T12:59:49.607Z,101599.38
2023-10-10T13:02:17.298Z,101601.88
2023-10-10T13:04:49.595Z,101594.56
2023-10-10T13:07:19.603Z,101591.75
2023-10-10T13:09:48.126Z,101584.50
2023-10-10T13:12:28.474Z,101586.13
2023-10-10T13:15:15.574Z,101600.28
2023-10-10T13:17:54.466Z,101592.06
2023-10-10T13:20:25.219Z,101587.28
2023-10-10T13:22:52.634Z,101587.84
2023-10-10T13:25:21.660Z,101589.22
2023-10-10T13:27:53.527Z,101593.16
2023-10-10T13:30:24.908Z,101595.31
2023-10-10T13:32:52.428Z,101603.66
2023-10-10T13:35:21.495Z,101604.16
2023-10-10T13:37:48.957Z,101605.63
2023-10-10T13:40:22.663Z,101607.91
2023-10-10T13:42:50.533Z,101600.66
2023-10-10T13:45:23.132Z,101595.44
2023-10-10T13:47:54.422Z,101599.31
2023-10-10T13:50:45.772Z,101588.75
2023-10-10T13:53:15.333Z,101589.94
2023-10-10T13:55:47.227Z,101583.31
2023-10-10T13:58:17.258Z,101586.22
2023-10-10T14:00:57.249Z,101580.22
2023-10-10T14:03:31.082Z,101577.53
2023-10-10T14:06:02.091Z,101582.84
2023-10-10T14:08:31.787Z,101574.78
2023-10-10T14:11:01.550Z,101573.03
2023-10-10T14:13:29.998Z,101564.13
2023-10-10T14:15:58.573Z,101565.88
2023-10-10T14:18:28.085Z,101564.91
2023-10-10T14:20:55.968Z,101565.88
2023-10-10T14:23:26.567Z,101567.66
2023-10-10T14:26:04.320Z,101567.66
2023-10-10T14:28:33.389Z,101569.50
2023-10-10T14:31:00.782Z,101565.88
2023-10-10T14:33:28.456Z,101557.75
2023-10-10T14:35:56.040Z,101562.94
2023-10-10T14:38:23.407Z,101552.94
2023-10-10T14:40:50.551Z,101547.44
2023-10-10T14:43:17.685Z,101553.47
2023-10-10T14:45:50.002Z,101551.41
2023-10-10T14:48:20.478Z,101553.88
2023-10-10T14:50:53.856Z,101548.28
2023-10-10T14:53:25.772Z,101550.00
2023-10-10T14:55:53.223Z,101546.47
2023-10-10T14:58:23.733Z,101541.38
2023-10-10T15:00:53.886Z,101539.00
2023-10-10T15:03:21.259Z,101540.28
2023-10-10T15:05:53.207Z,101542.44
2023-10-10T15:08:24.346Z,101533.97
2023-10-10T15:10:52.821Z,101529.78
2023-10-10T15:13:20.388Z,101525.72
2023-10-10T15:15:49.362Z,101518.09
2023-10-10T15:18:17.861Z,101513.13
2023-10-10T15:20:52.006Z,101523.25
2023-10-10T15:23:20.233Z,101515.59
2023-10-10T15:25:56.849Z,101513.50
2023-10-10T15:28:25.144Z,101503.31
2023-10-10T15:30:52.345Z,101501.16
2023-10-10T15:33:20.049Z,101494.50
2023-10-10T15:35:51.380Z,101487.84
2023-10-10T15:38:19.906Z,101488.34
2023-10-10T15:40:47.809Z,101482.56
2023-10-10T15:43:26.559Z,101481.19
2023-10-10T15:46:00.528Z,101476.97
2023-10-10T15:48:29.162Z,101480.75
2023-10-10T15:50:58.726Z,101478.34
2023-10-10T15:53:27.256Z,101470.50
2023-10-10T15:56:13.255Z,101473.41
2023-10-10T15:58:44.753Z,101474.47
2023-10-10T16:01:16.454Z,101463.16
2023-10-10T16:03:48.733Z,101468.78
2023-10-10T16:06:19.718Z,101471.75
2023-10-10T16:08:54.807Z,101461.28
2023-10-10T16:11:29.130Z,101458.03
2023-10-10T16:13:56.497Z,101455.63
2023-10-10T16:16:23.572Z,101445.25
2023-10-10T16:18:50.688Z,101449.00
2023-10-10T16:21:18.406Z,101457.28
2023-10-10T16:23:46.106Z,101442.38
2023-10-10T16:26:18.116Z,101442.59
2023-10-10T16:28:45.804Z,101438.38
2023-10-10T16:31:18.255Z,101447.53
2023-10-10T16:33:45.693Z,101444.28
2023-10-10T16:36:18.625Z,101445.41
2023-10-10T16:38:50.960Z,101437.69
2023-10-10T16:41:20.058Z,101454.88
2023-10-10T16:44:00.728Z,101440.00
2023-10-10T16:46:32.379Z,101439.41
2023-10-10T16:49:00.796Z,101440.50
2023-10-10T16:51:28.351Z,101444.38
2023-10-10T16:53:56.739Z,101441.03
2023-10-10T16:56:24.428Z,101440.41
2023-10-10T16:58:52.132Z,101436.22
2023-10-10T17:01:24.167Z,101441.75
2023-10-10T17:03:56.065Z,101440.16
2023-10-10T17:06:24.399Z,101440.38
2023-10-10T17:08:55.997Z,101444.97
2023-10-10T17:11:24.422Z,101440.69
2023-10-10T17:13:54.758Z,101437.31
2023-10-10T17:16:29.973Z,101438.31
2023-10-10T17:19:14.454Z,101436.69
2023-10-10T17:21:43.915Z,101435.97
2023-10-10T17:24:11.500Z,101428.97
2023-10-10T17:26:39.073Z,101426.44
2023-10-10T17:29:06.412Z,101428.31
2023-10-10T17:31:33.778Z,101426.66
2023-10-10T17:34:02.782Z,101429.41
2023-10-10T17:36:29.982Z,101422.44
2023-10-10T17:38:57.282Z,101423.38
2023-10-10T17:41:25.183Z,101424.38
2023-10-10T17:43:53.635Z,101424.44
2023-10-10T17:46:22.770Z,101424.50
2023-10-10T17:48:57.674Z,101426.34
2023-10-10T17:51:25.458Z,101417.56
2023-10-10T17:53:53.248Z,101423.81
2023-10-10T17:56:24.419Z,101426.53
2023-10-10T17:58:52.095Z,101422.13
2023-10-10T18:01:22.854Z,101415.97
2023-10-10T18:03:54.981Z,101420.38
2023-10-10T18:06:25.222Z,101418.63
2023-10-10T18:08:55.845Z,101415.06
2023-10-10T18:11:27.637Z,101415.06
2023-10-10T18:13:54.948Z,101412.38
2023-10-10T18:16:25.189Z,101415.88
2023-10-10T18:18:53.863Z,101413.22
2023-10-10T18:21:22.020Z,101403.41
2023-10-10T18:23:49.152Z,101409.59
2023-10-10T18:26:23.663Z,101405.94
2023-10-10T18:28:53.424Z,101403.22
2023-10-10T18:31:30.913Z,101404.91
2023-10-10T18:33:58.621Z,101399.44
2023-10-10T18:36:25.909Z,101400.25
2023-10-10T18:39:00.488Z,101394.81
2023-10-10T18:41:27.823Z,101397.44
2023-10-10T18:43:55.132Z,101397.34
2023-10-10T18:46:25.472Z,101388.41
2023-10-10T18:48:52.983Z,101396.28
2023-10-10T18:51:20.356Z,101392.63
2023-10-10T18:53:49.106Z,101393.44
2023-10-10T18:56:16.445Z,101399.56
2023-10-10T18:58:43.632Z,101396.81
2023-10-10T19:01:15.493Z,101395.88
2023-10-10T19:03:49.032Z,101393.16
2023-10-10T19:06:19.948Z,101394.91
2023-10-10T19:08:47.991Z,101392.25
2023-10-10T19:11:17.747Z,101393.97
2023-10-10T19:13:50.189Z,101391.25
2023-10-10T19:16:18.952Z,101396.53
2023-10-10T19:18:47.329Z,101392.09
2023-10-10T19:21:19.295Z,101385.84
2023-10-10T19:23:49.453Z,101392.94
2023-10-10T19:26:17.328Z,101391.13
2023-10-10T19:28:45.141Z,101380.53
2023-10-10T19:31:15.668Z,101376.16
2023-10-10T19:33:43.281Z,101379.72
2023-10-10T19:36:10.488Z,101376.22
2023-10-10T19:38:41.633Z,101372.69
2023-10-10T19:41:11.097Z,101363.91
2023-10-10T19:43:38.845Z,101369.31
2023-10-10T19:46:11.775Z,101366.66
2023-10-10T19:48:43.479Z,101363.19
2023-10-10T19:51:19.264Z,101358.88
2023-10-10T19:53:51.669Z,101364.28
2023-10-10T19:56:19.062Z,101366.09
2023-10-10T19:58:49.931Z,101359.91
2023-10-10T20:01:17.723Z,101365.34
2023-10-10T20:03:47.051Z,101366.28
2023-10-10T20:06:21.331Z,101361.88
2023-10-10T20:08:50.571Z,101358.41
2023-10-10T20:11:17.805Z,101363.81
2023-10-10T20:13:46.974Z,101369.16
2023-10-10T20:16:16.037Z,101365.72
2023-10-10T20:18:48.505Z,101357.75
2023-10-10T20:21:17.398Z,101364.00
2023-10-10T20:23:45.355Z,101370.25
2023-10-10T20:26:19.416Z,101371.22
2023-10-10T20:28:48.990Z,101379.19
2023-10-10T20:31:18.990Z,101374.78
2023-10-10T20:33:49.500Z,101372.16
2023-10-10T20:36:17.808Z,101371.31
2023-10-10T20:38:45.795Z,101374.91
2023-10-10T20:41:15.555Z,101371.44
2023-10-10T20:43:43.856Z,101367.06
2023-10-10T20:46:19.287Z,101376.00
2023-10-10T20:48:47.633Z,101377.84
2023-10-10T20:51:14.960Z,101377.97
2023-10-10T20:53:43.397Z,101382.41
2023-10-10T20:56:11.204Z,101372.75
2023-10-10T20:58:39.498Z,101371.94
2023-10-10T21:01:12.065Z,101369.31
2023-10-10T21:03:39.526Z,101380.03
2023-10-10T21:06:07.112Z,101369.44
2023-10-10T21:08:37.316Z,101373.91
2023-10-10T21:11:12.145Z,101376.63
2023-10-10T21:13:39.322Z,101371.34
2023-10-10T21:16:17.398Z,101372.22
2023-10-10T21:18:46.946Z,101374.00
2023-10-10T21:21:15.466Z,101367.84
2023-10-10T21:23:43.771Z,101373.13
2023-10-10T21:26:15.895Z,101372.25
2023-10-10T21:28:43.436Z,101377.59
2023-10-10T21:31:12.074Z,101367.03
2023-10-10T21:33:46.847Z,101368.00
2023-10-10T21:36:14.638Z,101370.66
2023-10-10T21:38:41.943Z,101368.06
2023-10-10T21:41:10.927Z,101366.31
2023-10-10T21:43:38.776Z,101373.47
2023-10-10T21:46:07.027Z,101362.91
2023-10-10T21:48:34.509Z,101373.59
2023-10-10T21:51:07.971Z,101364.78
2023-10-10T21:53:37.481Z,101369.22
2023-10-10T21:56:06.505Z,101375.44
2023-10-10T21:58:34.113Z,101370.13
2023-10-10T22:01:03.689Z,101351.53
2023-10-10T22:03:30.842Z,101355.06
2023-10-10T22:05:58.186Z,101353.19
2023-10-10T22:08:28.596Z,101353.13
2023-10-10T22:10:58.643Z,101349.53
2023-10-10T22:13:27.136Z,101358.31
2023-10-10T22:15:54.248Z,101352.94
2023-10-10T22:18:21.920Z,101352.00
2023-10-10T22:20:49.000Z,101353.75
2023-10-10T22:23:16.658Z,101345.72
2023-10-10T22:25:43.674Z,101345.66
2023-10-10T22:28:11.083Z,101350.00
2023-10-10T22:30:38.585Z,101342.88
2023-10-10T22:33:12.196Z,101345.50
2023-10-10T22:35:40.798Z,101343.63
2023-10-10T22:38:08.046Z,101336.53
2023-10-10T22:40:35.543Z,101347.97
2023-10-10T22:43:05.345Z,101342.56
2023-10-10T22:45:35.295Z,101337.22
2023-10-10T22:48:05.312Z,101331.84
2023-10-10T22:50:33.414Z,101329.16
2023-10-10T22:53:04.327Z,101330.00
2023-10-10T22:55:36.068Z,101333.56
2023-10-10T22:58:08.932Z,101337.94
2023-10-10T23:00:37.805Z,101326.47
2023-10-10T23:03:11.237Z,101334.44
2023-10-10T23:05:44.120Z,101337.97
2023-10-10T23:08:12.851Z,101339.78
2023-10-10T23:10:41.105Z,101343.31
2023-10-10T23:13:08.607Z,101337.19
2023-10-10T23:15:38.993Z,101339.00
2023-10-10T23:18:11.765Z,101339.03
2023-10-10T23:20:42.421Z,101345.31
2023-10-10T23:23:13.796Z,101337.41
2023-10-10T23:25:41.143Z,101332.19
2023-10-10T23:28:09.776Z,101328.69
2023-10-10T23:30:40.885Z,101319.94
2023-10-10T23:33:13.180Z,101321.78
2023-10-10T23:35:42.545Z,101315.63
2023-10-10T23:38:10.630Z,101317.41
2023-10-10T23:40:42.956Z,101315.66
2023-10-10T23:43:20.342Z,101316.56
2023-10-10T23:45:58.168Z,101322.81
2023-10-10T23:48:32.622Z,101322.00
2023-10-10T23:51:01.062Z,101321.13
2023-10-10T23:53:28.509Z,101330.84
2023-10-10T23:56:00.838Z,101329.97
2023-10-10T23:58:30.540Z,101329.94
